Time;durP1;ratioP1;P1;durP2;ratioP2;P2;SDS_P1;SDS_P2;PMS_P1;PMS_P2;Temp;Humidity;BMP_temperature;BMP_pressure;BME280_temperature;BME280_humidity;BME280_pressure;Samples;Min_cycle;Max_cycle;Signal;HPM_P1;HPM_P2
2021/01/11 00:01:33;;;;;;;57.38;32.50;;;;;;;;;;5085053;28;20622;-72
2021/01/11 00:03:59;;;;;;;53.33;31.25;;;;;;;;;;5087384;28;20270;-71
2021/01/11 00:06:25;;;;;;;53.30;32.67;;;;;;;;;;5090584;28;20243;-72
2021/01/11 00:08:51;;;;;;;51.13;31.45;;;;;;;;;;5090986;28;20176;-72
2021/01/11 00:11:23;;;;;;;55.88;32.88;;;;;;;;;;5090518;28;20287;-71
2021/01/11 00:13:49;;;;;;;51.75;31.98;;;;;;;;;;5088802;28;20539;-70
2021/01/11 00:16:16;;;;;;;51.17;31.63;;;;;;;;;;5076868;28;20286;-72
2021/01/11 00:18:42;;;;;;;49.63;30.67;;;;;;;;;;5090552;28;20195;-75
2021/01/11 00:21:08;;;;;;;50.30;32.33;;;;;;;;;;5074609;28;20208;-73
2021/01/11 00:23:34;;;;;;;54.45;31.90;;;;;;;;;;5069866;28;20641;-69
2021/01/11 00:26:00;;;;;;;48.53;31.70;;;;;;;;;;5089513;28;20248;-74
2021/01/11 00:28:26;;;;;;;53.35;32.92;;;;;;;;;;5090361;28;20178;-70
2021/01/11 00:30:52;;;;;;;51.80;30.30;;;;;;;;;;5084351;28;20203;-70
2021/01/11 00:33:18;;;;;;;52.60;32.10;;;;;;;;;;5088900;28;20656;-72
2021/01/11 00:35:44;;;;;;;52.63;30.95;;;;;;;;;;5089568;28;20594;-72
2021/01/11 00:38:11;;;;;;;46.85;28.38;;;;;;;;;;5090295;28;20286;-71
2021/01/11 00:40:37;;;;;;;50.70;28.55;;;;;;;;;;5089700;28;20267;-74
2021/01/11 00:43:03;;;;;;;47.38;29.85;;;;;;;;;;5074660;28;20187;-70
2021/01/11 00:45:29;;;;;;;54.15;30.90;;;;;;;;;;5070342;28;20176;-72
2021/01/11 00:47:55;;;;;;;49.83;29.73;;;;;;;;;;5069650;28;20183;-72
2021/01/11 00:50:21;;;;;;;52.28;31.45;;;;;;;;;;5073311;28;20176;-72
2021/01/11 00:52:47;;;;;;;53.30;30.40;;;;;;;;;;5093626;28;20258;-72
2021/01/11 00:55:13;;;;;;;53.53;29.48;;;;;;;;;;5077110;28;20533;-71
2021/01/11 00:57:39;;;;;;;51.20;28.40;;;;;;;;;;5078206;28;20637;-72
2021/01/11 01:00:08;;;;;;;46.38;28.42;;;;;;;;;;5073502;28;20643;-70
2021/01/11 01:02:34;;;;;;;49.90;30.27;;;;;;;;;;5073231;28;20211;-72
2021/01/11 01:05:00;;;;;;;52.03;30.00;;;;;;;;;;5072912;28;20178;-70
2021/01/11 01:07:26;;;;;;;53.30;29.05;;;;;;;;;;5073059;28;20283;-73
2021/01/11 01:09:52;;;;;;;48.70;27.52;;;;;;;;;;5087727;28;20175;-70
2021/01/11 01:12:19;;;;;;;56.00;30.55;;;;;;;;;;5093055;28;20295;-71
2021/01/11 01:14:45;;;;;;;50.95;29.75;;;;;;;;;;5092908;28;20528;-72
2021/01/11 01:17:11;;;;;;;51.72;29.80;;;;;;;;;;5093589;28;20270;-73
2021/01/11 01:19:37;;;;;;;53.20;31.02;;;;;;;;;;5093099;28;20241;-70
2021/01/11 01:22:04;;;;;;;55.78;30.13;;;;;;;;;;5093233;28;20192;-71
2021/01/11 01:24:30;;;;;;;54.78;31.75;;;;;;;;;;5092690;28;20258;-73
2021/01/11 01:26:56;;;;;;;52.55;29.98;;;;;;;;;;5093451;28;20172;-73
2021/01/11 01:29:22;;;;;;;52.85;30.00;;;;;;;;;;5090021;28;20184;-71
2021/01/11 01:31:48;;;;;;;54.30;30.42;;;;;;;;;;5082492;28;20191;-73
2021/01/11 01:34:14;;;;;;;56.13;33.30;;;;;;;;;;5092648;28;20183;-72
2021/01/11 01:36:40;;;;;;;60.17;32.67;;;;;;;;;;5093572;28;20631;-71
2021/01/11 01:39:06;;;;;;;57.50;31.98;;;;;;;;;;5093021;28;20645;-72
2021/01/11 01:41:32;;;;;;;60.97;31.90;;;;;;;;;;5082824;28;20477;-71
2021/01/11 01:43:58;;;;;;;64.10;33.20;;;;;;;;;;5089533;28;20183;-73
2021/01/11 01:46:28;;;;;;;74.30;33.92;;;;;;;;;;5093202;28;20234;-72
2021/01/11 01:48:54;;;;;;;60.20;33.47;;;;;;;;;;5093157;28;20167;-71
2021/01/11 01:51:21;;;;;;;66.43;33.33;;;;;;;;;;5092738;28;20244;-73
2021/01/11 01:53:47;;;;;;;59.45;32.67;;;;;;;;;;5092278;28;20211;-69
2021/01/11 01:56:14;;;;;;;62.05;32.53;;;;;;;;;;5092936;28;20179;-72
2021/01/11 01:58:40;;;;;;;62.92;32.45;;;;;;;;;;5092722;28;20183;-70
2021/01/11 02:01:06;;;;;;;58.33;32.45;;;;;;;;;;5095024;28;20680;-74
2021/01/11 02:03:32;;;;;;;61.20;32.33;;;;;;;;;;5096216;28;20183;-72
2021/01/11 02:05:58;;;;;;;63.30;32.92;;;;;;;;;;5096634;28;20178;-72
2021/01/11 02:08:33;;;;;;;66.78;34.70;;;;;;;;;;5096857;28;20171;-71
2021/01/11 02:11:17;;;;;;;70.05;33.85;;;;;;;;;;5090038;28;20552;-71
2021/01/11 02:13:43;;;;;;;71.05;33.97;;;;;;;;;;5096299;28;20517;-74
2021/01/11 02:16:16;;;;;;;64.43;32.58;;;;;;;;;;5096697;28;20184;-72
2021/01/11 02:18:51;;;;;;;59.80;32.45;;;;;;;;;;5096649;28;20194;-75
2021/01/11 02:21:53;;;;;;;66.60;34.97;;;;;;;;;;5093220;28;20560;-71
2021/01/11 02:24:19;;;;;;;75.28;34.30;;;;;;;;;;5068347;28;20652;-71
2021/01/11 02:26:55;;;;;;;70.88;34.30;;;;;;;;;;5083747;28;20522;-74
2021/01/11 02:29:41;;;;;;;64.95;34.20;;;;;;;;;;5093868;28;20171;-74
2021/01/11 02:32:07;;;;;;;67.35;34.28;;;;;;;;;;5087875;28;20191;-73
2021/01/11 02:34:34;;;;;;;68.75;34.95;;;;;;;;;;5079369;28;20656;-73
2021/01/11 02:37:01;;;;;;;73.72;34.35;;;;;;;;;;5095914;28;20184;-73
2021/01/11 02:39:27;;;;;;;67.35;33.63;;;;;;;;;;5079081;28;20241;-73
2021/01/11 02:41:53;;;;;;;59.67;33.72;;;;;;;;;;5092182;28;20198;-73
2021/01/11 02:44:19;;;;;;;69.43;35.00;;;;;;;;;;5095266;28;20175;-73
2021/01/11 02:46:45;;;;;;;64.05;34.25;;;;;;;;;;5095683;28;20179;-72
2021/01/11 02:49:28;;;;;;;69.43;36.03;;;;;;;;;;5075958;28;20245;-74
2021/01/11 02:51:57;;;;;;;71.07;36.17;;;;;;;;;;5085445;28;20191;-73
2021/01/11 02:54:30;;;;;;;62.47;34.15;;;;;;;;;;5082130;28;20168;-71
2021/01/11 02:57:07;;;;;;;59.60;32.17;;;;;;;;;;5075712;28;20176;-72
2021/01/11 02:59:35;;;;;;;63.65;34.20;;;;;;;;;;5086987;28;20206;-72
2021/01/11 03:02:07;;;;;;;62.97;34.75;;;;;;;;;;5094232;28;20206;-73
2021/01/11 03:04:33;;;;;;;67.22;36.17;;;;;;;;;;5082618;28;20238;-71
2021/01/11 03:07:00;;;;;;;70.40;36.83;;;;;;;;;;5079699;28;20675;-73
2021/01/11 03:09:27;;;;;;;71.13;37.83;;;;;;;;;;5104625;28;20615;-71
2021/01/11 03:11:53;;;;;;;72.47;36.67;;;;;;;;;;5085700;28;20215;-72
2021/01/11 03:14:19;;;;;;;83.85;39.30;;;;;;;;;;5081636;28;20172;-72
2021/01/11 03:16:46;;;;;;;72.95;37.22;;;;;;;;;;5087181;28;20481;-72
2021/01/11 03:19:12;;;;;;;84.45;41.53;;;;;;;;;;5095401;28;20282;-72
2021/01/11 03:21:40;;;;;;;86.65;39.55;;;;;;;;;;5093669;28;20199;-71
2021/01/11 03:24:06;;;;;;;82.95;38.38;;;;;;;;;;5088173;28;20171;-72
2021/01/11 03:26:32;;;;;;;78.20;39.83;;;;;;;;;;5082021;28;20171;-72
2021/01/11 03:28:58;;;;;;;78.10;40.35;;;;;;;;;;5095141;28;20221;-72
2021/01/11 03:31:24;;;;;;;87.53;39.63;;;;;;;;;;5088184;28;20192;-73
2021/01/11 03:33:50;;;;;;;89.28;40.72;;;;;;;;;;5081164;28;20191;-70
2021/01/11 03:36:17;;;;;;;77.45;38.13;;;;;;;;;;5078607;28;20184;-72
2021/01/11 03:38:43;;;;;;;90.00;40.53;;;;;;;;;;5079120;28;20210;-70
2021/01/11 03:41:09;;;;;;;82.00;40.15;;;;;;;;;;5080206;28;20215;-74
2021/01/11 03:43:39;;;;;;;83.95;40.00;;;;;;;;;;5088237;28;20171;-73
2021/01/11 03:46:06;;;;;;;83.55;38.58;;;;;;;;;;5087108;28;20637;-72
2021/01/11 03:48:32;;;;;;;78.70;38.10;;;;;;;;;;5073458;28;20184;-71
2021/01/11 03:50:59;;;;;;;79.65;39.78;;;;;;;;;;5081807;28;20283;-73
2021/01/11 03:53:25;;;;;;;72.85;37.70;;;;;;;;;;5093486;28;20186;-72
2021/01/11 03:55:52;;;;;;;80.90;38.67;;;;;;;;;;5074045;28;20653;-71
2021/01/11 03:58:18;;;;;;;92.75;39.88;;;;;;;;;;5074457;28;20176;-75
2021/01/11 04:00:44;;;;;;;86.63;41.83;;;;;;;;;;5081867;28;20210;-72
2021/01/11 04:03:10;;;;;;;87.88;41.05;;;;;;;;;;5093875;28;20305;-73
2021/01/11 04:05:36;;;;;;;101.43;42.88;;;;;;;;;;5093502;28;20179;-72
2021/01/11 04:08:02;;;;;;;83.88;40.10;;;;;;;;;;5092996;28;20213;-72
2021/01/11 04:10:29;;;;;;;90.15;41.22;;;;;;;;;;5096579;28;20207;-71
2021/01/11 04:12:55;;;;;;;79.20;39.40;;;;;;;;;;5080065;28;20171;-71
2021/01/11 04:15:21;;;;;;;77.70;37.20;;;;;;;;;;5085930;28;20623;-71
2021/01/11 04:17:50;;;;;;;81.40;38.10;;;;;;;;;;5093077;28;20206;-71
2021/01/11 04:20:16;;;;;;;76.18;38.58;;;;;;;;;;5074074;28;20261;-70
2021/01/11 04:22:42;;;;;;;75.20;39.13;;;;;;;;;;5085642;28;20223;-71
2021/01/11 04:25:09;;;;;;;78.78;36.38;;;;;;;;;;5082737;28;20247;-72
2021/01/11 04:27:35;;;;;;;76.38;38.00;;;;;;;;;;5075560;28;20171;-70
2021/01/11 04:30:01;;;;;;;82.22;36.85;;;;;;;;;;5091522;28;20179;-72
2021/01/11 04:32:27;;;;;;;76.75;38.42;;;;;;;;;;5086900;28;20564;-72
2021/01/11 04:34:53;;;;;;;75.05;37.38;;;;;;;;;;5073147;28;20529;-71
2021/01/11 04:37:19;;;;;;;75.70;38.85;;;;;;;;;;5086126;28;20536;-73
2021/01/11 04:39:45;;;;;;;72.00;35.80;;;;;;;;;;5093872;28;20557;-73
2021/01/11 04:42:12;;;;;;;72.63;36.53;;;;;;;;;;5078012;28;20214;-71
2021/01/11 04:44:38;;;;;;;77.07;37.25;;;;;;;;;;5073045;28;20568;-73
2021/01/11 04:47:04;;;;;;;78.47;36.75;;;;;;;;;;5074284;28;20534;-73
2021/01/11 04:49:31;;;;;;;76.88;36.22;;;;;;;;;;5078091;28;20217;-72
2021/01/11 04:51:59;;;;;;;75.95;36.53;;;;;;;;;;5092890;28;20532;-70
2021/01/11 04:54:26;;;;;;;71.70;36.92;;;;;;;;;;5082179;28;20167;-72
2021/01/11 04:56:52;;;;;;;78.75;37.30;;;;;;;;;;5077525;28;20230;-72
2021/01/11 04:59:21;;;;;;;76.05;34.85;;;;;;;;;;5082407;28;20204;-72
2021/01/11 05:01:50;;;;;;;72.95;35.95;;;;;;;;;;5083736;28;20572;-71
2021/01/11 05:04:17;;;;;;;79.38;40.30;;;;;;;;;;5093476;28;20177;-72
2021/01/11 05:06:47;;;;;;;83.68;37.10;;;;;;;;;;5088338;28;20187;-73
2021/01/11 05:09:14;;;;;;;74.07;36.60;;;;;;;;;;5087114;28;20202;-70
2021/01/11 05:11:40;;;;;;;77.63;38.00;;;;;;;;;;5093691;28;20198;-72
2021/01/11 05:14:07;;;;;;;76.03;37.33;;;;;;;;;;5082169;28;20211;-73
2021/01/11 05:16:33;;;;;;;80.43;39.08;;;;;;;;;;5075882;28;20187;-72
2021/01/11 05:19:17;;;;;;;82.10;38.33;;;;;;;;;;5081866;28;20182;-70
2021/01/11 05:21:46;;;;;;;72.85;34.53;;;;;;;;;;5079506;28;20203;-70
2021/01/11 05:24:33;;;;;;;78.05;39.75;;;;;;;;;;5085571;28;20186;-73
2021/01/11 05:26:59;;;;;;;73.75;35.85;;;;;;;;;;5072966;28;20250;-72
2021/01/11 05:29:26;;;;;;;73.72;37.90;;;;;;;;;;5086599;28;20199;-73
2021/01/11 05:31:56;;;;;;;76.93;39.70;;;;;;;;;;5092917;28;20233;-72
2021/01/11 05:34:22;;;;;;;67.65;32.70;;;;;;;;;;5087974;28;20195;-71
2021/01/11 05:36:49;;;;;;;84.63;40.05;;;;;;;;;;5072696;28;20176;-71
2021/01/11 05:39:15;;;;;;;74.25;36.10;;;;;;;;;;5082023;28;20277;-72
2021/01/11 05:41:41;;;;;;;74.60;35.72;;;;;;;;;;5074885;28;20191;-73
2021/01/11 05:44:14;;;;;;;68.43;37.88;;;;;;;;;;5074583;28;20218;-73
2021/01/11 05:46:41;;;;;;;70.65;37.95;;;;;;;;;;5084397;28;20183;-71
2021/01/11 05:49:08;;;;;;;73.82;35.90;;;;;;;;;;5092683;28;20571;-71
2021/01/11 05:51:35;;;;;;;61.63;34.70;;;;;;;;;;5084384;28;20273;-73
2021/01/11 05:54:02;;;;;;;59.78;33.95;;;;;;;;;;5091656;28;20189;-73
2021/01/11 05:56:28;;;;;;;68.53;35.60;;;;;;;;;;5080974;28;20172;-73
2021/01/11 05:59:03;;;;;;;62.97;35.17;;;;;;;;;;5073513;28;20191;-73
2021/01/11 06:01:32;;;;;;;60.03;35.30;;;;;;;;;;5088125;28;20714;-73
2021/01/11 06:03:59;;;;;;;64.30;33.20;;;;;;;;;;5080041;28;20192;-74
2021/01/11 06:06:25;;;;;;;61.00;34.15;;;;;;;;;;5078152;28;20275;-73
2021/01/11 06:08:52;;;;;;;65.30;29.92;;;;;;;;;;5080332;28;20166;-72
2021/01/11 06:11:24;;;;;;;52.88;25.50;;;;;;;;;;5084176;28;20191;-72
2021/01/11 06:13:51;;;;;;;54.13;30.42;;;;;;;;;;5085080;28;20551;-70
2021/01/11 06:16:18;;;;;;;54.72;30.02;;;;;;;;;;5092423;28;20176;-73
2021/01/11 06:18:45;;;;;;;55.95;29.42;;;;;;;;;;5082965;28;20180;-72
2021/01/11 06:21:11;;;;;;;54.40;31.23;;;;;;;;;;5070868;28;20607;-72
2021/01/11 06:23:39;;;;;;;50.72;28.80;;;;;;;;;;5088781;28;20168;-73
2021/01/11 06:26:25;;;;;;;47.30;27.13;;;;;;;;;;5092429;28;20175;-72
2021/01/11 06:28:51;;;;;;;48.40;27.35;;;;;;;;;;5091983;28;20559;-70
2021/01/11 06:31:18;;;;;;;47.90;26.70;;;;;;;;;;5078189;28;20200;-74
2021/01/11 06:33:44;;;;;;;45.13;25.67;;;;;;;;;;5091301;28;20179;-72
2021/01/11 06:36:23;;;;;;;45.30;25.13;;;;;;;;;;5092155;28;20513;-72
2021/01/11 06:38:50;;;;;;;43.45;24.33;;;;;;;;;;5081723;28;20183;-72
2021/01/11 06:41:17;;;;;;;38.97;22.75;;;;;;;;;;5092395;28;20199;-69
2021/01/11 06:43:46;;;;;;;28.67;17.48;;;;;;;;;;5090616;28;20195;-69
2021/01/11 06:46:13;;;;;;;35.33;21.35;;;;;;;;;;5083797;28;20175;-69
2021/01/11 06:48:40;;;;;;;36.47;22.48;;;;;;;;;;5095479;28;20191;-71
2021/01/11 06:51:08;;;;;;;37.72;23.30;;;;;;;;;;5095781;28;20199;-73
2021/01/11 06:53:34;;;;;;;35.03;22.58;;;;;;;;;;5093472;28;20262;-72
2021/01/11 06:56:03;;;;;;;37.83;22.23;;;;;;;;;;5096067;28;20648;-73
2021/01/11 06:58:32;;;;;;;35.38;21.55;;;;;;;;;;5095803;28;20193;-74
2021/01/11 07:01:02;;;;;;;38.33;22.33;;;;;;;;;;5082341;28;20218;-73
2021/01/11 07:03:48;;;;;;;32.30;20.50;;;;;;;;;;5091214;28;20167;-72
2021/01/11 07:06:33;;;;;;;36.45;20.80;;;;;;;;;;5075350;28;20194;-73
2021/01/11 07:09:11;;;;;;;31.55;18.98;;;;;;;;;;5088769;28;20181;-73
2021/01/11 07:11:44;;;;;;;28.65;19.42;;;;;;;;;;5097626;28;20672;-70
2021/01/11 07:14:11;;;;;;;30.70;18.48;;;;;;;;;;5077056;28;20188;-70
2021/01/11 07:16:44;;;;;;;27.05;18.08;;;;;;;;;;5091047;28;20588;-70
2021/01/11 07:19:10;;;;;;;32.95;20.30;;;;;;;;;;5084994;28;20167;-72
2021/01/11 07:21:36;;;;;;;32.03;21.30;;;;;;;;;;5094992;28;20726;-72
2021/01/11 07:24:04;;;;;;;31.02;19.15;;;;;;;;;;5095040;28;20570;-72
2021/01/11 07:26:30;;;;;;;28.95;19.13;;;;;;;;;;5095368;28;20505;-71
2021/01/11 07:29:02;;;;;;;30.45;19.50;;;;;;;;;;5093680;28;20175;-72
2021/01/11 07:31:36;;;;;;;29.92;20.40;;;;;;;;;;5090343;28;20665;-72
2021/01/11 07:34:05;;;;;;;30.83;21.70;;;;;;;;;;5081551;28;20180;-70
2021/01/11 07:36:51;;;;;;;30.35;18.65;;;;;;;;;;5087738;28;20268;-74
2021/01/11 07:39:23;;;;;;;28.27;17.63;;;;;;;;;;5076313;28;20168;-72
2021/01/11 07:41:50;;;;;;;30.50;19.40;;;;;;;;;;5093067;28;20322;-73
2021/01/11 07:44:16;;;;;;;30.25;19.75;;;;;;;;;;5094265;28;20240;-72
2021/01/11 07:46:43;;;;;;;35.13;21.73;;;;;;;;;;5095118;28;20195;-71
2021/01/11 07:49:13;;;;;;;33.47;20.35;;;;;;;;;;5088581;28;20236;-71
2021/01/11 07:51:40;;;;;;;32.75;19.70;;;;;;;;;;5076209;28;20282;-72
2021/01/11 07:54:07;;;;;;;32.53;19.85;;;;;;;;;;5081735;28;20191;-70
2021/01/11 07:56:33;;;;;;;38.22;24.50;;;;;;;;;;5079871;28;20187;-72
2021/01/11 07:59:04;;;;;;;32.55;21.48;;;;;;;;;;5087461;28;20236;-73
2021/01/11 08:01:30;;;;;;;32.90;21.50;;;;;;;;;;5077652;28;20211;-72
2021/01/11 08:03:56;;;;;;;30.73;21.05;;;;;;;;;;5085660;28;20216;-70
2021/01/11 08:06:23;;;;;;;32.97;20.80;;;;;;;;;;5084016;28;20198;-72
2021/01/11 08:08:51;;;;;;;31.63;20.77;;;;;;;;;;5089256;28;20190;-71
2021/01/11 08:11:17;;;;;;;31.17;19.83;;;;;;;;;;5086593;28;20298;-72
2021/01/11 08:13:44;;;;;;;33.33;21.08;;;;;;;;;;5074952;28;20210;-71
2021/01/11 08:16:13;;;;;;;29.05;18.48;;;;;;;;;;5090323;28;20267;-71
2021/01/11 08:18:40;;;;;;;35.72;21.80;;;;;;;;;;5090206;28;20187;-70
2021/01/11 08:21:10;;;;;;;35.25;20.48;;;;;;;;;;5089774;28;20211;-71
2021/01/11 08:23:36;;;;;;;36.35;22.05;;;;;;;;;;5076339;28;20560;-71
2021/01/11 08:26:04;;;;;;;35.03;21.42;;;;;;;;;;5085448;28;20179;-71
2021/01/11 08:28:31;;;;;;;35.00;22.20;;;;;;;;;;5087203;28;20175;-72
2021/01/11 08:30:59;;;;;;;32.83;20.80;;;;;;;;;;5089840;28;20211;-70
2021/01/11 08:33:25;;;;;;;35.33;21.90;;;;;;;;;;5089649;28;20225;-72
2021/01/11 08:35:51;;;;;;;35.15;21.45;;;;;;;;;;5089601;28;20274;-69
2021/01/11 08:38:17;;;;;;;35.50;20.60;;;;;;;;;;5089631;28;20178;-71
2021/01/11 08:40:49;;;;;;;36.60;20.38;;;;;;;;;;5088263;28;20687;-70
2021/01/11 08:43:23;;;;;;;32.25;20.85;;;;;;;;;;5090034;28;20178;-70
2021/01/11 08:45:53;;;;;;;33.00;19.25;;;;;;;;;;5084237;28;20187;-70
2021/01/11 08:48:25;;;;;;;35.47;22.15;;;;;;;;;;5088884;28;20184;-71
2021/01/11 08:50:51;;;;;;;35.25;21.90;;;;;;;;;;5078296;28;20200;-72
2021/01/11 08:53:17;;;;;;;36.77;22.73;;;;;;;;;;5080347;28;20190;-71
2021/01/11 08:55:56;;;;;;;34.72;22.17;;;;;;;;;;5085473;28;20430;-71
2021/01/11 08:58:23;;;;;;;39.03;22.48;;;;;;;;;;5089680;28;20187;-73
2021/01/11 09:00:49;;;;;;;41.35;24.05;;;;;;;;;;5089592;28;20306;-72
2021/01/11 09:03:15;;;;;;;41.80;24.10;;;;;;;;;;5089185;28;20560;-71
2021/01/11 09:05:42;;;;;;;42.88;24.83;;;;;;;;;;5089157;28;20182;-73
2021/01/11 09:08:19;;;;;;;41.72;25.80;;;;;;;;;;5089339;28;20191;-71
2021/01/11 09:10:45;;;;;;;43.13;25.58;;;;;;;;;;5086777;28;21985;-71
2021/01/11 09:13:22;;;;;;;44.00;25.38;;;;;;;;;;5089259;28;20190;-72
2021/01/11 09:15:49;;;;;;;45.45;25.02;;;;;;;;;;5077769;28;20541;-72
2021/01/11 09:18:15;;;;;;;42.72;26.70;;;;;;;;;;5089317;28;20187;-71
2021/01/11 09:20:42;;;;;;;50.50;27.40;;;;;;;;;;5084320;28;20230;-73
2021/01/11 09:23:08;;;;;;;47.90;27.08;;;;;;;;;;5082937;28;20179;-71
2021/01/11 09:25:35;;;;;;;57.80;29.92;;;;;;;;;;5089031;28;20190;-70
2021/01/11 09:28:05;;;;;;;53.33;31.42;;;;;;;;;;5088443;28;20711;-72
2021/01/11 09:30:31;;;;;;;48.10;27.50;;;;;;;;;;5072681;28;20258;-73
2021/01/11 09:32:58;;;;;;;56.25;30.88;;;;;;;;;;5084506;28;20188;-71
2021/01/11 09:35:24;;;;;;;50.78;26.67;;;;;;;;;;5079297;28;20608;-72
2021/01/11 09:37:50;;;;;;;48.55;29.23;;;;;;;;;;5078806;28;20210;-72
2021/01/11 09:40:17;;;;;;;57.65;31.83;;;;;;;;;;5089026;28;20203;-73
2021/01/11 09:42:45;;;;;;;54.58;29.83;;;;;;;;;;5085903;28;20211;-73
2021/01/11 09:45:11;;;;;;;51.15;29.23;;;;;;;;;;5084421;28;20190;-71
2021/01/11 09:47:37;;;;;;;57.30;26.48;;;;;;;;;;5089102;28;20179;-73
2021/01/11 09:50:04;;;;;;;63.53;30.67;;;;;;;;;;5083209;28;20187;-71
2021/01/11 09:52:31;;;;;;;56.60;29.00;;;;;;;;;;5088046;28;20219;-72
2021/01/11 09:54:57;;;;;;;50.67;28.95;;;;;;;;;;5073111;28;20207;-75
2021/01/11 09:57:23;;;;;;;58.50;28.75;;;;;;;;;;5085945;28;20551;-71
2021/01/11 09:59:49;;;;;;;49.03;26.23;;;;;;;;;;5088860;28;20207;-71
2021/01/11 10:02:15;;;;;;;50.90;28.73;;;;;;;;;;5088670;28;20206;-72
2021/01/11 10:04:41;;;;;;;49.08;25.33;;;;;;;;;;5087836;28;20557;-72
2021/01/11 10:07:10;;;;;;;51.70;25.15;;;;;;;;;;5071661;28;20199;-73
2021/01/11 10:09:36;;;;;;;48.45;24.65;;;;;;;;;;5093219;28;20186;-71
2021/01/11 10:12:03;;;;;;;60.03;28.17;;;;;;;;;;5071359;28;20196;-73
2021/01/11 10:14:30;;;;;;;55.92;27.30;;;;;;;;;;5076772;28;20191;-69
2021/01/11 10:16:56;;;;;;;47.78;26.05;;;;;;;;;;5080995;28;20175;-71
2021/01/11 10:19:23;;;;;;;49.67;25.63;;;;;;;;;;5082683;28;20675;-72
2021/01/11 10:21:50;;;;;;;49.92;25.15;;;;;;;;;;5084270;28;20688;-71
2021/01/11 10:24:16;;;;;;;48.72;26.17;;;;;;;;;;5077630;28;20513;-71
2021/01/11 10:26:43;;;;;;;48.17;26.05;;;;;;;;;;5090893;28;20203;-71
2021/01/11 10:29:09;;;;;;;47.38;23.73;;;;;;;;;;5092445;28;20179;-71
2021/01/11 10:31:35;;;;;;;48.50;24.55;;;;;;;;;;5092621;28;20682;-72
2021/01/11 10:34:01;;;;;;;50.35;25.45;;;;;;;;;;5092073;28;20237;-72
2021/01/11 10:36:29;;;;;;;49.97;26.20;;;;;;;;;;5074409;28;20188;-70
2021/01/11 10:38:55;;;;;;;49.33;25.83;;;;;;;;;;5072914;28;20223;-74
2021/01/11 10:41:21;;;;;;;51.75;24.90;;;;;;;;;;5073757;28;20226;-70
2021/01/11 10:43:48;;;;;;;46.83;22.38;;;;;;;;;;5071915;28;20176;-71
2021/01/11 10:46:18;;;;;;;56.03;24.92;;;;;;;;;;5088057;28;20188;-72
2021/01/11 10:48:44;;;;;;;47.85;25.65;;;;;;;;;;5092226;28;20229;-71
2021/01/11 10:51:11;;;;;;;48.42;25.00;;;;;;;;;;5086275;28;20204;-72
2021/01/11 10:53:40;;;;;;;48.75;23.35;;;;;;;;;;5085247;28;20225;-71
2021/01/11 10:56:07;;;;;;;48.97;22.90;;;;;;;;;;5085478;28;20517;-70
2021/01/11 10:58:33;;;;;;;40.38;19.75;;;;;;;;;;5091535;28;20644;-70
2021/01/11 11:00:59;;;;;;;46.50;23.10;;;;;;;;;;5091253;28;20218;-71
2021/01/11 11:03:25;;;;;;;46.40;24.35;;;;;;;;;;5091129;28;20184;-71
2021/01/11 11:05:52;;;;;;;45.45;22.90;;;;;;;;;;5083332;28;20186;-72
2021/01/11 11:08:18;;;;;;;42.15;20.85;;;;;;;;;;5086789;28;20182;-73
2021/01/11 11:10:44;;;;;;;38.58;20.17;;;;;;;;;;5093420;28;20207;-73
2021/01/11 11:13:10;;;;;;;36.83;20.92;;;;;;;;;;5086732;28;20283;-72
2021/01/11 11:15:36;;;;;;;35.40;19.92;;;;;;;;;;5090818;28;20183;-72
2021/01/11 11:18:02;;;;;;;33.20;18.38;;;;;;;;;;5091303;28;20187;-73
2021/01/11 11:20:28;;;;;;;34.33;19.42;;;;;;;;;;5091418;28;20199;-71
2021/01/11 11:22:54;;;;;;;30.23;18.75;;;;;;;;;;5089164;28;20234;-70
2021/01/11 11:25:21;;;;;;;28.23;16.83;;;;;;;;;;5089280;28;20184;-71
2021/01/11 11:27:48;;;;;;;35.03;18.75;;;;;;;;;;5080189;28;20190;-71
2021/01/11 11:30:15;;;;;;;32.13;16.35;;;;;;;;;;5089975;28;20783;-71
2021/01/11 11:32:59;;;;;;;35.78;19.50;;;;;;;;;;5090521;28;20243;-71
2021/01/11 11:35:25;;;;;;;32.92;18.85;;;;;;;;;;5080887;28;20199;-71
2021/01/11 11:37:51;;;;;;;37.45;19.75;;;;;;;;;;5083474;28;20525;-73
2021/01/11 11:40:17;;;;;;;37.85;21.17;;;;;;;;;;5080451;28;20759;-72
2021/01/11 11:42:44;;;;;;;35.85;19.65;;;;;;;;;;5090570;28;20660;-72
2021/01/11 11:45:11;;;;;;;39.53;19.90;;;;;;;;;;5089378;28;20652;-72
2021/01/11 11:47:38;;;;;;;38.78;19.83;;;;;;;;;;5079746;28;20255;-72
2021/01/11 11:50:05;;;;;;;39.78;21.17;;;;;;;;;;5087090;28;20653;-71
2021/01/11 11:52:31;;;;;;;37.20;20.45;;;;;;;;;;5088414;28;20219;-73
2021/01/11 11:54:57;;;;;;;38.60;21.05;;;;;;;;;;5079720;28;20179;-72
2021/01/11 11:57:23;;;;;;;40.70;21.40;;;;;;;;;;5082823;28;20257;-73
2021/01/11 11:59:49;;;;;;;37.75;21.58;;;;;;;;;;5089532;28;20569;-71
2021/01/11 12:02:15;;;;;;;38.55;21.20;;;;;;;;;;5087672;28;20211;-73
2021/01/11 12:04:41;;;;;;;41.80;24.40;;;;;;;;;;5079494;28;20180;-72
2021/01/11 12:07:07;;;;;;;39.78;21.70;;;;;;;;;;5076473;28;20200;-72
2021/01/11 12:09:33;;;;;;;41.13;21.75;;;;;;;;;;5089307;28;20572;-74
2021/01/11 12:12:00;;;;;;;33.30;19.25;;;;;;;;;;5074840;28;20204;-72
2021/01/11 12:14:26;;;;;;;42.25;22.42;;;;;;;;;;5080714;28;20187;-73
2021/01/11 12:16:52;;;;;;;41.35;23.25;;;;;;;;;;5070176;28;20176;-72
2021/01/11 12:19:18;;;;;;;33.03;19.27;;;;;;;;;;5080583;28;20180;-71
2021/01/11 12:21:45;;;;;;;46.35;25.45;;;;;;;;;;5070072;28;20269;-73
2021/01/11 12:24:12;;;;;;;38.97;21.95;;;;;;;;;;5069785;28;21016;-70
2021/01/11 12:26:44;;;;;;;45.75;24.75;;;;;;;;;;5070141;28;20195;-71
2021/01/11 12:29:11;;;;;;;44.83;26.23;;;;;;;;;;5087526;28;20195;-73
2021/01/11 12:31:37;;;;;;;43.88;23.60;;;;;;;;;;5086606;28;20605;-71
2021/01/11 12:34:04;;;;;;;43.63;24.05;;;;;;;;;;5083812;28;20230;-71
2021/01/11 12:36:31;;;;;;;44.97;25.60;;;;;;;;;;5069972;28;20184;-73
2021/01/11 12:38:57;;;;;;;42.88;23.58;;;;;;;;;;5076362;28;20180;-71
2021/01/11 12:41:24;;;;;;;38.95;23.02;;;;;;;;;;5078463;28;20242;-74
2021/01/11 12:43:50;;;;;;;42.90;25.05;;;;;;;;;;5089190;28;20171;-73
2021/01/11 12:46:17;;;;;;;41.33;24.15;;;;;;;;;;5086928;28;20533;-69
2021/01/11 12:48:43;;;;;;;39.33;22.70;;;;;;;;;;5087387;28;20262;-71
2021/01/11 12:51:13;;;;;;;39.17;24.20;;;;;;;;;;5089523;28;20201;-71
2021/01/11 12:53:40;;;;;;;45.83;25.60;;;;;;;;;;5082139;28;20815;-72
2021/01/11 12:56:13;;;;;;;44.20;23.38;;;;;;;;;;5077028;28;20179;-73
2021/01/11 12:58:39;;;;;;;40.85;22.80;;;;;;;;;;5088996;28;20184;-71
2021/01/11 13:01:05;;;;;;;38.90;22.20;;;;;;;;;;5089823;28;20257;-75
2021/01/11 13:03:31;;;;;;;42.70;20.58;;;;;;;;;;5088932;28;20175;-71
2021/01/11 13:05:58;;;;;;;41.85;24.45;;;;;;;;;;5088595;28;20179;-72
2021/01/11 13:08:24;;;;;;;39.50;22.60;;;;;;;;;;5081738;28;20219;-73
2021/01/11 13:10:50;;;;;;;40.22;22.80;;;;;;;;;;5090867;28;20272;-73
2021/01/11 13:13:16;;;;;;;44.97;24.50;;;;;;;;;;5088584;28;20191;-73
2021/01/11 13:15:42;;;;;;;39.50;24.10;;;;;;;;;;5074560;28;20704;-73
2021/01/11 13:18:08;;;;;;;40.90;23.40;;;;;;;;;;5079908;28;20207;-73
2021/01/11 13:20:34;;;;;;;41.65;24.35;;;;;;;;;;5089619;28;20631;-72
2021/01/11 13:23:00;;;;;;;40.63;24.20;;;;;;;;;;5088102;28;20207;-72
2021/01/11 13:25:27;;;;;;;35.67;21.20;;;;;;;;;;5088688;28;20186;-72
2021/01/11 13:27:57;;;;;;;39.50;23.75;;;;;;;;;;5081860;28;20180;-72
2021/01/11 13:30:23;;;;;;;42.50;22.48;;;;;;;;;;5084687;28;20191;-71
2021/01/11 13:32:51;;;;;;;39.97;22.27;;;;;;;;;;5081032;28;20179;-72
2021/01/11 13:35:17;;;;;;;40.00;23.63;;;;;;;;;;5081735;28;20182;-73
2021/01/11 13:37:43;;;;;;;44.47;23.27;;;;;;;;;;5069220;28;20199;-72
2021/01/11 13:40:09;;;;;;;35.78;24.20;;;;;;;;;;5083682;28;20198;-72
2021/01/11 13:42:35;;;;;;;41.90;24.15;;;;;;;;;;5089138;28;20199;-74
2021/01/11 13:45:05;;;;;;;40.22;24.33;;;;;;;;;;5085952;28;20187;-72
2021/01/11 13:47:31;;;;;;;44.10;22.52;;;;;;;;;;5088314;28;20180;-72
2021/01/11 13:49:57;;;;;;;36.90;22.42;;;;;;;;;;5085071;28;20527;-71
2021/01/11 13:52:23;;;;;;;34.20;19.95;;;;;;;;;;5075109;28;20249;-73
2021/01/11 13:54:49;;;;;;;40.55;22.95;;;;;;;;;;5084045;28;20183;-73
2021/01/11 13:57:16;;;;;;;36.38;22.63;;;;;;;;;;5088272;28;20210;-72
2021/01/11 13:59:42;;;;;;;37.60;20.45;;;;;;;;;;5091943;28;20229;-74
2021/01/11 14:02:08;;;;;;;36.15;22.05;;;;;;;;;;5083031;28;20208;-72
2021/01/11 14:04:34;;;;;;;43.38;24.73;;;;;;;;;;5082254;28;20175;-72
2021/01/11 14:07:00;;;;;;;39.67;23.52;;;;;;;;;;5092941;28;20210;-72
2021/01/11 14:09:26;;;;;;;41.20;23.48;;;;;;;;;;5093180;28;20176;-73
2021/01/11 14:11:52;;;;;;;38.80;23.05;;;;;;;;;;5092927;28;20203;-73
2021/01/11 14:14:18;;;;;;;39.40;22.00;;;;;;;;;;5092238;28;20525;-73
2021/01/11 14:16:45;;;;;;;45.38;26.17;;;;;;;;;;5093020;28;20188;-73
2021/01/11 14:19:11;;;;;;;40.50;22.17;;;;;;;;;;5089316;28;20188;-72